createdAt,value
2023-09-24T00:00:53.240Z,78.62
2023-09-24T00:03:54.771Z,78.58
2023-09-24T00:06:40.247Z,78.65
2023-09-24T00:09:16.693Z,78.69
2023-09-24T00:11:53.576Z,78.61
2023-09-24T00:14:30.416Z,78.54
2023-09-24T00:17:06.527Z,78.55
2023-09-24T00:19:42.968Z,78.66
2023-09-24T00:22:24.911Z,79.00
2023-09-24T00:25:07.947Z,78.99
2023-09-24T00:27:44.474Z,79.21
2023-09-24T00:30:28.073Z,79.43
2023-09-24T00:33:07.734Z,79.14
2023-09-24T00:35:45.304Z,79.38
2023-09-24T00:38:24.694Z,79.44
2023-09-24T00:41:04.045Z,79.52
2023-09-24T00:43:47.619Z,79.59
2023-09-24T00:46:28.304Z,79.55
2023-09-24T00:49:06.859Z,79.63
2023-09-24T00:51:44.000Z,79.62
2023-09-24T00:54:22.913Z,79.55
2023-09-24T00:57:00.132Z,79.67
2023-09-24T00:59:37.496Z,79.79
2023-09-24T01:02:21.609Z,79.75
2023-09-24T01:04:59.571Z,79.63
2023-09-24T01:07:38.265Z,79.79
2023-09-24T01:10:18.517Z,80.03
2023-09-24T01:13:07.316Z,80.16
2023-09-24T01:15:42.597Z,80.18
2023-09-24T01:18:25.551Z,80.29
2023-09-24T01:21:02.886Z,80.33
2023-09-24T01:23:47.930Z,80.29
2023-09-24T01:26:28.904Z,80.31
2023-09-24T01:29:05.200Z,80.20
2023-09-24T01:31:44.511Z,80.24
2023-09-24T01:34:20.812Z,80.26
2023-09-24T01:37:00.122Z,80.29
2023-09-24T01:39:38.010Z,80.34
2023-09-24T01:42:15.159Z,80.36
2023-09-24T01:44:53.730Z,80.23
2023-09-24T01:47:31.693Z,80.22
2023-09-24T01:50:10.296Z,80.21
2023-09-24T01:52:49.301Z,80.20
2023-09-24T01:55:24.561Z,80.23
2023-09-24T01:58:01.885Z,80.37
2023-09-24T02:00:38.789Z,80.46
2023-09-24T02:03:17.262Z,80.61
2023-09-24T02:05:52.130Z,80.57
2023-09-24T02:08:27.279Z,80.56
2023-09-24T02:11:02.684Z,80.53
2023-09-24T02:13:40.024Z,80.59
2023-09-24T02:16:16.241Z,80.71
2023-09-24T02:18:51.399Z,80.69
2023-09-24T02:21:26.563Z,80.94
2023-09-24T02:24:05.102Z,80.93
2023-09-24T02:26:39.469Z,81.06
2023-09-24T02:29:17.640Z,81.12
2023-09-24T02:31:55.812Z,81.31
2023-09-24T02:34:33.591Z,81.26
2023-09-24T02:37:11.116Z,81.44
2023-09-24T02:39:47.217Z,81.23
2023-09-24T02:42:27.403Z,81.49
2023-09-24T02:45:01.527Z,81.48
2023-09-24T02:47:39.337Z,81.53
2023-09-24T02:50:15.805Z,81.41
2023-09-24T02:52:52.116Z,81.44
2023-09-24T02:55:28.640Z,81.52
2023-09-24T02:58:08.964Z,81.46
2023-09-24T03:00:44.817Z,81.39
2023-09-24T03:03:19.305Z,81.48
2023-09-24T03:05:57.418Z,81.51
2023-09-24T03:08:34.777Z,81.60
2023-09-24T03:11:18.736Z,81.63
2023-09-24T03:13:59.651Z,81.51
2023-09-24T03:16:34.733Z,81.60
2023-09-24T03:19:10.914Z,81.55
2023-09-24T03:21:45.736Z,81.62
2023-09-24T03:24:23.305Z,81.68
2023-09-24T03:26:56.947Z,81.67
2023-09-24T03:29:31.844Z,81.66
2023-09-24T03:32:08.711Z,81.88
2023-09-24T03:34:47.103Z,81.88
2023-09-24T03:37:25.275Z,82.07
2023-09-24T03:40:00.398Z,81.88
2023-09-24T03:42:41.456Z,81.80
2023-09-24T03:45:26.838Z,81.80
2023-09-24T03:48:05.537Z,81.65
2023-09-24T03:50:44.124Z,81.53
2023-09-24T03:53:26.366Z,81.50
2023-09-24T03:56:03.322Z,81.47
2023-09-24T03:58:39.492Z,81.38
2023-09-24T04:01:21.107Z,81.42
2023-09-24T04:03:56.271Z,81.30
2023-09-24T04:06:34.193Z,81.65
2023-09-24T04:09:11.689Z,81.65
2023-09-24T04:11:52.459Z,81.84
2023-09-24T04:14:32.098Z,82.05
2023-09-24T04:17:07.519Z,81.94
2023-09-24T04:19:47.198Z,81.99
2023-09-24T04:22:24.100Z,81.89
2023-09-24T04:25:00.778Z,81.84
2023-09-24T04:27:45.591Z,81.84
2023-09-24T04:30:24.110Z,82.06
2023-09-24T04:33:03.851Z,81.99
2023-09-24T04:35:38.359Z,82.15
2023-09-24T04:38:15.398Z,82.14
2023-09-24T04:40:53.009Z,82.26
2023-09-24T04:43:29.025Z,82.28
2023-09-24T04:46:08.434Z,82.31
2023-09-24T04:48:44.691Z,82.40
2023-09-24T04:51:24.528Z,82.37
2023-09-24T04:54:02.311Z,82.52
2023-09-24T04:56:41.027Z,82.82
2023-09-24T04:59:18.305Z,82.80
2023-09-24T05:01:52.893Z,82.93
2023-09-24T05:04:36.627Z,82.85
2023-09-24T05:07:12.617Z,83.01
2023-09-24T05:09:51.389Z,83.13
2023-09-24T05:12:26.062Z,83.38
2023-09-24T05:15:02.169Z,83.39
2023-09-24T05:17:41.426Z,83.40
2023-09-24T05:20:20.654Z,83.48
2023-09-24T05:23:03.892Z,83.57
2023-09-24T05:25:42.413Z,83.62
2023-09-24T05:28:17.569Z,83.78
2023-09-24T05:30:59.527Z,83.74
2023-09-24T05:33:37.064Z,83.90
2023-09-24T05:36:15.823Z,84.06
2023-09-24T05:38:54.196Z,84.23
2023-09-24T05:41:29.233Z,84.18
2023-09-24T05:44:11.487Z,84.21
2023-09-24T05:46:57.045Z,84.23
2023-09-24T05:49:40.069Z,84.18
2023-09-24T05:52:18.858Z,84.43
2023-09-24T05:54:58.595Z,84.52
2023-09-24T05:57:38.268Z,84.65
2023-09-24T06:00:19.703Z,84.99
2023-09-24T06:02:53.800Z,85.03
2023-09-24T06:05:30.977Z,84.97
2023-09-24T06:08:06.519Z,85.04
2023-09-24T06:10:51.223Z,85.12
2023-09-24T06:13:31.841Z,85.28
2023-09-24T06:16:08.956Z,85.22
2023-09-24T06:18:46.857Z,85.18
2023-09-24T06:21:32.916Z,85.21
2023-09-24T06:24:21.715Z,85.19
2023-09-24T06:26:57.052Z,85.27
2023-09-24T06:29:37.762Z,85.14
2023-09-24T06:32:22.613Z,85.09
2023-09-24T06:34:58.889Z,85.16
2023-09-24T06:37:46.330Z,85.15
2023-09-24T06:40:28.227Z,85.13
2023-09-24T06:43:06.442Z,85.04
2023-09-24T06:45:42.389Z,84.92
2023-09-24T06:48:21.738Z,84.92
2023-09-24T06:50:57.622Z,85.06
2023-09-24T06:53:32.362Z,84.80
2023-09-24T06:56:10.921Z,84.92
2023-09-24T06:58:52.426Z,84.82
2023-09-24T07:01:31.229Z,84.74
2023-09-24T07:04:12.565Z,84.88
2023-09-24T07:06:53.642Z,84.37
2023-09-24T07:09:30.863Z,84.21
2023-09-24T07:12:12.888Z,84.10
2023-09-24T07:15:01.824Z,83.88
2023-09-24T07:17:37.719Z,83.75
2023-09-24T07:20:18.552Z,83.50
2023-09-24T07:22:54.963Z,83.85
2023-09-24T07:25:32.271Z,83.79
2023-09-24T07:28:10.526Z,83.46
2023-09-24T07:30:53.958Z,83.54
2023-09-24T07:33:29.935Z,83.68
2023-09-24T07:36:08.309Z,83.67
2023-09-24T07:38:59.023Z,83.83
2023-09-24T07:41:35.600Z,83.83
2023-09-24T07:44:12.426Z,83.70
2023-09-24T07:46:50.077Z,83.11
2023-09-24T07:49:29.954Z,82.62
2023-09-24T07:52:08.336Z,82.58
2023-09-24T07:54:48.797Z,82.69
2023-09-24T07:57:24.783Z,82.53
2023-09-24T08:00:05.542Z,82.46
2023-09-24T08:02:48.340Z,82.30
2023-09-24T08:05:40.212Z,82.12
2023-09-24T08:08:18.254Z,81.92
2023-09-24T08:10:56.505Z,81.77
2023-09-24T08:13:32.478Z,81.46
2023-09-24T08:16:08.917Z,81.17
2023-09-24T08:18:45.740Z,81.19
2023-09-24T08:21:23.821Z,81.13
2023-09-24T08:24:00.746Z,80.34
2023-09-24T08:26:38.288Z,79.71
2023-09-24T08:29:19.311Z,79.71
2023-09-24T08:31:54.600Z,79.67
2023-09-24T08:34:30.768Z,79.10
2023-09-24T08:37:05.292Z,79.11
2023-09-24T08:39:40.312Z,79.03
2023-09-24T08:42:22.213Z,78.89
2023-09-24T08:45:07.904Z,78.25
2023-09-24T08:47:46.567Z,77.44
2023-09-24T08:50:21.269Z,77.73
2023-09-24T08:52:59.150Z,77.60
2023-09-24T08:55:36.328Z,76.65
2023-09-24T08:58:09.728Z,76.41
2023-09-24T09:00:46.936Z,75.98
2023-09-24T09:03:23.869Z,76.14
2023-09-24T09:05:57.601Z,76.01
2023-09-24T09:08:31.964Z,75.59
2023-09-24T09:11:09.185Z,75.08
2023-09-24T09:13:47.846Z,75.17
2023-09-24T09:16:24.174Z,74.94
2023-09-24T09:19:04.697Z,75.00
2023-09-24T09:21:42.472Z,73.43
2023-09-24T09:24:25.380Z,73.65
2023-09-24T09:27:00.933Z,73.42
2023-09-24T09:29:35.456Z,73.14
2023-09-24T09:32:13.925Z,72.42
2023-09-24T09:34:58.027Z,72.49
2023-09-24T09:37:32.600Z,71.54
2023-09-24T09:40:24.756Z,71.70
2023-09-24T09:43:01.561Z,71.08
2023-09-24T09:45:37.413Z,71.36
2023-09-24T09:48:16.904Z,70.99
2023-09-24T09:50:54.188Z,70.37
2023-09-24T09:53:36.458Z,70.60
2023-09-24T09:56:13.439Z,70.16
2023-09-24T09:58:55.088Z,69.67
2023-09-24T10:01:32.072Z,69.23
2023-09-24T10:04:11.914Z,69.46
2023-09-24T10:06:48.313Z,69.25
2023-09-24T10:09:42.488Z,69.21
2023-09-24T10:12:36.546Z,69.03
2023-09-24T10:15:31.867Z,68.83
2023-09-24T10:18:28.283Z,68.72
2023-09-24T10:21:12.064Z,68.51
2023-09-24T10:23:48.517Z,68.31
2023-09-24T10:26:53.260Z,68.10
2023-09-24T10:30:15.489Z,67.65
2023-09-24T10:32:56.888Z,67.17
2023-09-24T10:35:33.998Z,66.67
2023-09-24T10:38:10.387Z,66.99
2023-09-24T10:41:15.884Z,67.00
2023-09-24T10:44:29.045Z,66.59
2023-09-24T10:47:29.264Z,66.43
2023-09-24T10:50:08.467Z,66.06
2023-09-24T10:52:54.888Z,65.79
2023-09-24T10:55:41.400Z,65.62
2023-09-24T10:58:21.807Z,64.46
2023-09-24T11:01:03.531Z,63.40
2023-09-24T11:03:48.827Z,64.05
2023-09-24T11:06:35.324Z,64.02
2023-09-24T11:09:21.989Z,64.07
2023-09-24T11:11:57.890Z,64.41
2023-09-24T11:14:33.565Z,64.03
2023-09-24T11:17:28.066Z,63.25
2023-09-24T11:20:10.324Z,63.12
2023-09-24T11:22:47.133Z,63.65
2023-09-24T11:25:23.235Z,63.34
2023-09-24T11:27:58.113Z,63.19
2023-09-24T11:30:46.365Z,61.69
2023-09-24T11:33:24.398Z,61.23
2023-09-24T11:36:01.960Z,61.65
2023-09-24T11:38:41.844Z,61.74
2023-09-24T11:41:21.139Z,62.19
2023-09-24T11:44:06.286Z,61.89
2023-09-24T11:46:41.855Z,61.37
2023-09-24T11:49:18.500Z,61.36
2023-09-24T11:51:58.599Z,60.22
2023-09-24T11:54:37.651Z,59.76
2023-09-24T11:57:16.611Z,60.42
2023-09-24T11:59:52.032Z,59.98
2023-09-24T12:02:26.739Z,59.75
2023-09-24T12:05:03.497Z,60.09
2023-09-24T12:07:37.470Z,60.13
2023-09-24T12:10:18.530Z,60.20
2023-09-24T12:12:52.938Z,60.07
2023-09-24T12:15:28.124Z,60.03
2023-09-24T12:18:20.206Z,59.34
2023-09-24T12:20:58.605Z,59.64
2023-09-24T12:23:34.516Z,59.46
2023-09-24T12:26:10.776Z,59.72
2023-09-24T12:28:47.618Z,59.41
2023-09-24T12:31:32.322Z,58.81
2023-09-24T12:34:08.130Z,58.53
2023-09-24T12:36:44.983Z,57.31
2023-09-24T12:39:22.446Z,56.74
2023-09-24T12:41:55.846Z,56.06
2023-09-24T12:44:30.150Z,56.18
2023-09-24T12:47:07.106Z,56.26
2023-09-24T12:49:41.930Z,56.15
2023-09-24T12:52:16.759Z,56.34
2023-09-24T12:54:52.068Z,56.58
2023-09-24T12:57:27.798Z,56.68
2023-09-24T13:00:08.018Z,57.14
2023-09-24T13:02:44.433Z,57.24
2023-09-24T13:05:23.475Z,57.33
2023-09-24T13:07:59.260Z,57.08
2023-09-24T13:10:33.945Z,57.40
2023-09-24T13:13:09.994Z,57.61
2023-09-24T13:15:45.772Z,57.30
2023-09-24T13:18:21.027Z,57.12
2023-09-24T13:20:56.782Z,56.92
2023-09-24T13:23:33.404Z,56.62
2023-09-24T13:26:11.146Z,56.32
2023-09-24T13:28:44.894Z,56.63
2023-09-24T13:31:19.176Z,56.60
2023-09-24T13:33:54.404Z,56.58
2023-09-24T13:36:32.309Z,56.70
2023-09-24T13:39:07.501Z,56.24
2023-09-24T13:41:46.382Z,56.55
2023-09-24T13:44:25.196Z,56.51
2023-09-24T13:47:01.471Z,56.71
2023-09-24T13:49:41.394Z,57.14
2023-09-24T13:52:19.571Z,57.26
2023-09-24T13:54:55.658Z,57.34
2023-09-24T13:57:30.518Z,57.43
2023-09-24T14:00:14.211Z,57.21
2023-09-24T14:02:53.439Z,57.21
2023-09-24T14:05:29.285Z,57.59
2023-09-24T14:08:17.902Z,57.52
2023-09-24T14:11:10.836Z,57.23
2023-09-24T14:13:48.597Z,57.25
2023-09-24T14:16:26.910Z,57.01
2023-09-24T14:19:05.729Z,56.68
2023-09-24T14:21:47.976Z,56.80
2023-09-24T14:24:23.380Z,56.32
2023-09-24T14:26:58.812Z,56.01
2023-09-24T14:29:34.796Z,56.43
2023-09-24T14:32:11.218Z,56.08
2023-09-24T14:34:51.181Z,56.05
2023-09-24T14:37:30.929Z,56.34
2023-09-24T14:40:14.875Z,56.69
2023-09-24T14:42:48.967Z,56.25
2023-09-24T14:45:33.907Z,56.32
2023-09-24T14:48:10.051Z,55.99
2023-09-24T14:50:46.109Z,56.01
2023-09-24T14:53:21.707Z,55.54
2023-09-24T14:56:04.644Z,55.35
2023-09-24T14:58:41.464Z,54.56
2023-09-24T15:01:18.346Z,54.57
2023-09-24T15:03:54.992Z,54.77
2023-09-24T15:06:29.552Z,55.05
2023-09-24T15:09:04.750Z,54.92
2023-09-24T15:11:43.077Z,54.68
2023-09-24T15:14:19.674Z,54.17
2023-09-24T15:16:57.985Z,54.23
2023-09-24T15:19:36.326Z,54.54
2023-09-24T15:22:11.862Z,54.56
2023-09-24T15:24:47.175Z,54.36
2023-09-24T15:27:22.165Z,54.79
2023-09-24T15:29:59.651Z,54.59
2023-09-24T15:32:37.879Z,54.69
2023-09-24T15:35:15.093Z,54.57
2023-09-24T15:37:55.585Z,54.72
2023-09-24T15:40:32.821Z,54.89
2023-09-24T15:43:10.617Z,55.16
2023-09-24T15:45:50.481Z,55.30
2023-09-24T15:48:26.176Z,55.48
2023-09-24T15:51:01.293Z,55.76
2023-09-24T15:53:36.442Z,56.02
2023-09-24T15:56:15.045Z,56.23
2023-09-24T15:58:52.608Z,56.28
2023-09-24T16:01:29.039Z,56.41
2023-09-24T16:04:05.208Z,56.71
2023-09-24T16:06:44.737Z,57.01
2023-09-24T16:09:21.723Z,57.23
2023-09-24T16:11:58.994Z,57.38
2023-09-24T16:14:34.340Z,57.58
2023-09-24T16:17:09.910Z,57.77
2023-09-24T16:19:52.496Z,57.82
2023-09-24T16:22:28.167Z,58.05
2023-09-24T16:25:07.145Z,58.22
2023-09-24T16:27:42.204Z,58.41
2023-09-24T16:30:19.588Z,58.49
2023-09-24T16:33:01.748Z,58.59
2023-09-24T16:35:41.127Z,58.92
2023-09-24T16:38:18.054Z,59.04
2023-09-24T16:41:03.431Z,59.13
2023-09-24T16:43:42.967Z,59.41
2023-09-24T16:46:19.071Z,59.62
2023-09-24T16:48:53.316Z,59.89
2023-09-24T16:51:28.401Z,60.07
2023-09-24T16:54:09.266Z,60.18
2023-09-24T16:56:44.845Z,60.30
2023-09-24T16:59:24.490Z,60.56
2023-09-24T17:02:04.209Z,60.94
2023-09-24T17:04:40.627Z,61.02
2023-09-24T17:07:17.285Z,61.24
2023-09-24T17:09:50.870Z,61.36
2023-09-24T17:12:28.164Z,61.65
2023-09-24T17:15:02.370Z,61.99
2023-09-24T17:17:38.956Z,61.96
2023-09-24T17:20:18.253Z,62.24
2023-09-24T17:22:55.830Z,62.50
2023-09-24T17:25:30.140Z,62.69
2023-09-24T17:28:05.364Z,62.96
2023-09-24T17:30:40.553Z,63.26
2023-09-24T17:33:19.667Z,63.56
2023-09-24T17:35:56.756Z,63.50
2023-09-24T17:38:31.195Z,63.66
2023-09-24T17:41:06.730Z,63.82
2023-09-24T17:43:46.163Z,64.02
2023-09-24T17:46:20.878Z,64.40
2023-09-24T17:48:57.353Z,64.48
2023-09-24T17:51:33.416Z,64.59
2023-09-24T17:54:10.829Z,64.70
2023-09-24T17:56:46.470Z,64.74
2023-09-24T17:59:24.062Z,64.96
2023-09-24T18:02:01.711Z,65.32
2023-09-24T18:04:36.565Z,65.41
2023-09-24T18:07:13.115Z,65.57
2023-09-24T18:09:47.738Z,65.93
2023-09-24T18:12:25.000Z,66.19
2023-09-24T18:14:58.664Z,66.12
2023-09-24T18:17:34.860Z,66.35
2023-09-24T18:20:17.036Z,66.63
2023-09-24T18:22:59.732Z,66.91
2023-09-24T18:25:33.705Z,67.22
2023-09-24T18:28:07.741Z,67.49
2023-09-24T18:30:44.178Z,67.73
2023-09-24T18:33:18.999Z,67.82
2023-09-24T18:35:56.241Z,68.09
2023-09-24T18:38:32.262Z,68.23
2023-09-24T18:41:06.799Z,68.51
2023-09-24T18:43:49.236Z,68.62
2023-09-24T18:46:40.735Z,68.79
2023-09-24T18:49:15.185Z,69.13
2023-09-24T18:51:52.215Z,69.32
2023-09-24T18:54:30.177Z,69.66
2023-09-24T18:57:04.339Z,69.98
2023-09-24T18:59:39.214Z,70.08
2023-09-24T19:02:13.822Z,70.16
2023-09-24T19:04:50.179Z,70.21
2023-09-24T19:07:27.335Z,70.16
2023-09-24T19:10:03.535Z,70.57
2023-09-24T19:12:38.880Z,70.82
2023-09-24T19:15:17.356Z,71.02
2023-09-24T19:17:51.815Z,71.13
2023-09-24T19:20:28.275Z,71.24
2023-09-24T19:23:04.150Z,71.20
2023-09-24T19:25:37.912Z,71.55
2023-09-24T19:28:13.921Z,71.60
2023-09-24T19:30:56.996Z,71.72
2023-09-24T19:33:39.159Z,72.07
2023-09-24T19:36:18.480Z,72.32
2023-09-24T19:38:53.676Z,72.58
2023-09-24T19:41:28.422Z,72.78
2023-09-24T19:44:11.470Z,72.84
2023-09-24T19:46:46.624Z,73.28
2023-09-24T19:49:23.150Z,73.75
2023-09-24T19:52:00.418Z,73.46
2023-09-24T19:54:43.008Z,73.58
2023-09-24T19:57:20.579Z,73.98
2023-09-24T19:59:55.886Z,73.84
2023-09-24T20:02:31.827Z,74.08
2023-09-24T20:05:07.817Z,74.17
2023-09-24T20:07:48.596Z,74.09
2023-09-24T20:10:23.571Z,74.24
2023-09-24T20:12:57.177Z,74.30
2023-09-24T20:15:34.161Z,74.41
2023-09-24T20:18:11.594Z,74.45
2023-09-24T20:20:47.549Z,74.62
2023-09-24T20:23:22.235Z,74.60
2023-09-24T20:25:57.780Z,74.64
2023-09-24T20:28:46.821Z,74.83
2023-09-24T20:31:29.177Z,74.90
2023-09-24T20:34:05.340Z,75.06
2023-09-24T20:36:42.456Z,74.93
2023-09-24T20:39:19.595Z,74.82
2023-09-24T20:41:59.587Z,75.20
2023-09-24T20:44:37.562Z,75.51
2023-09-24T20:47:22.389Z,75.51
2023-09-24T20:50:07.489Z,75.86
2023-09-24T20:52:47.672Z,75.81
2023-09-24T20:55:23.186Z,75.87
2023-09-24T20:57:59.227Z,76.08
2023-09-24T21:00:47.456Z,76.46
2023-09-24T21:03:21.799Z,77.10
2023-09-24T21:06:01.115Z,77.02
2023-09-24T21:08:37.518Z,76.92
2023-09-24T21:11:15.044Z,77.24
2023-09-24T21:13:50.446Z,77.23
2023-09-24T21:16:29.569Z,77.33
2023-09-24T21:19:05.344Z,77.31
2023-09-24T21:21:41.328Z,77.43
2023-09-24T21:24:18.067Z,77.40
2023-09-24T21:26:54.727Z,77.43
2023-09-24T21:29:30.066Z,77.56
2023-09-24T21:32:06.456Z,77.52
2023-09-24T21:34:40.869Z,77.64
2023-09-24T21:37:19.907Z,77.69
2023-09-24T21:39:56.413Z,78.04
2023-09-24T21:42:32.761Z,78.55
2023-09-24T21:45:15.073Z,78.84
2023-09-24T21:47:50.422Z,79.33
2023-09-24T21:50:25.758Z,79.22
2023-09-24T21:53:02.076Z,79.18
2023-09-24T21:55:36.669Z,79.32
2023-09-24T21:58:14.742Z,79.25
2023-09-24T22:00:54.797Z,79.12
2023-09-24T22:03:30.640Z,78.95
2023-09-24T22:06:11.608Z,78.91
2023-09-24T22:08:48.900Z,78.95
2023-09-24T22:11:26.048Z,79.10
2023-09-24T22:14:02.173Z,79.14
2023-09-24T22:16:35.854Z,79.19
2023-09-24T22:19:13.485Z,79.12
2023-09-24T22:21:55.264Z,79.53
2023-09-24T22:24:31.093Z,79.32
2023-09-24T22:27:09.057Z,79.59
2023-09-24T22:29:53.237Z,79.80
2023-09-24T22:32:33.247Z,79.72
2023-09-24T22:35:14.220Z,79.77
2023-09-24T22:37:55.576Z,79.68
2023-09-24T22:40:37.857Z,79.90
2023-09-24T22:43:25.517Z,80.03
2023-09-24T22:46:04.808Z,80.23
2023-09-24T22:48:42.323Z,80.21
2023-09-24T22:51:19.960Z,80.39
2023-09-24T22:53:56.078Z,80.55
2023-09-24T22:56:35.543Z,80.56
2023-09-24T22:59:16.450Z,80.37
2023-09-24T23:01:51.988Z,80.42
2023-09-24T23:04:27.869Z,80.65
2023-09-24T23:07:04.954Z,80.64
2023-09-24T23:09:48.061Z,80.96
2023-09-24T23:12:23.910Z,80.80
2023-09-24T23:14:56.612Z,80.77
2023-09-24T23:17:41.272Z,81.05
2023-09-24T23:20:25.658Z,80.93
2023-09-24T23:23:03.628Z,81.01
2023-09-24T23:25:46.262Z,81.11
2023-09-24T23:28:21.812Z,80.96
2023-09-24T23:30:56.456Z,81.03
2023-09-24T23:33:31.668Z,81.01
2023-09-24T23:36:09.313Z,81.10
2023-09-24T23:38:47.000Z,81.04
2023-09-24T23:41:24.370Z,81.16
2023-09-24T23:44:01.766Z,81.27
2023-09-24T23:46:42.692Z,81.23
2023-09-24T23:49:19.399Z,81.09
2023-09-24T23:51:56.815Z,81.17
2023-09-24T23:54:33.804Z,81.09
2023-09-24T23:57:08.019Z,81.24
2023-09-24T23:59:44.410Z,81.43
